createdAt,value
2019-04-28T00:00:17.585Z,81.95
2019-04-28T00:01:16.603Z,82.46
2019-04-28T00:02:17.167Z,81.95
2019-04-28T00:03:16.556Z,81.99
2019-04-28T00:04:16.616Z,82.40
2019-04-28T00:05:17.445Z,82.46
2019-04-28T00:06:16.520Z,82.36
2019-04-28T00:07:16.534Z,82.15
2019-04-28T00:08:17.044Z,82.26
2019-04-28T00:09:17.444Z,82.36
2019-04-28T00:10:16.483Z,82.26
2019-04-28T00:11:16.463Z,82.05
2019-04-28T00:12:16.480Z,82.15
2019-04-28T00:13:16.440Z,82.05
2019-04-28T00:14:16.432Z,81.95
2019-04-28T00:15:17.511Z,82.05
2019-04-28T00:16:16.421Z,81.85
2019-04-28T00:17:17.108Z,81.95
2019-04-28T00:18:16.388Z,82.15
2019-04-28T00:19:16.379Z,81.95
2019-04-28T00:20:16.376Z,81.88
2019-04-28T00:21:17.128Z,81.99
2019-04-28T00:22:16.376Z,82.40
2019-04-28T00:23:16.336Z,82.29
2019-04-28T00:24:16.325Z,82.19
2019-04-28T00:25:16.315Z,82.29
2019-04-28T00:26:16.306Z,82.29
2019-04-28T00:27:16.353Z,82.81
2019-04-28T00:28:16.291Z,82.40
2019-04-28T00:29:16.283Z,82.43
2019-04-28T00:30:16.270Z,82.60
2019-04-28T00:31:16.252Z,82.91
2019-04-28T00:32:16.242Z,82.50
2019-04-28T00:33:16.260Z,82.64
2019-04-28T00:34:17.211Z,82.64
2019-04-28T00:35:16.211Z,82.54
2019-04-28T00:36:16.208Z,82.50
2019-04-28T00:37:16.190Z,82.33
2019-04-28T00:38:16.214Z,82.75
2019-04-28T00:39:16.169Z,82.43
2019-04-28T00:40:17.127Z,82.54
2019-04-28T00:41:16.153Z,82.54
2019-04-28T00:42:16.136Z,82.43
2019-04-28T00:43:16.157Z,82.75
2019-04-28T00:44:16.116Z,82.64
2019-04-28T00:45:16.106Z,82.54
2019-04-28T00:46:16.095Z,82.64
2019-04-28T00:47:16.085Z,82.75
2019-04-28T00:48:16.127Z,82.43
2019-04-28T00:49:16.064Z,82.75
2019-04-28T00:50:16.053Z,82.64
2019-04-28T00:51:16.041Z,82.84
2019-04-28T00:52:16.030Z,82.64
2019-04-28T00:53:16.052Z,82.95
2019-04-28T00:54:16.018Z,82.64
2019-04-28T00:55:16.811Z,82.84
2019-04-28T00:56:15.990Z,83.09
2019-04-28T00:57:16.019Z,83.19
2019-04-28T00:58:15.997Z,83.46
2019-04-28T00:59:15.968Z,83.40
2019-04-28T01:00:15.954Z,83.40
2019-04-28T01:01:15.937Z,83.46
2019-04-28T01:02:15.935Z,83.26
2019-04-28T01:03:15.944Z,82.84
2019-04-28T01:04:15.911Z,83.19
2019-04-28T01:05:15.903Z,82.95
2019-04-28T01:06:15.893Z,82.95
2019-04-28T01:07:15.884Z,83.19
2019-04-28T01:08:16.694Z,83.09
2019-04-28T01:09:15.859Z,82.99
2019-04-28T01:10:15.848Z,83.29
2019-04-28T01:11:15.843Z,83.29
2019-04-28T01:12:15.821Z,83.19
2019-04-28T01:13:16.693Z,83.29
2019-04-28T01:14:15.808Z,83.09
2019-04-28T01:15:16.688Z,83.40
2019-04-28T01:16:15.787Z,83.40
2019-04-28T01:17:15.772Z,83.19
2019-04-28T01:18:15.794Z,83.19
2019-04-28T01:19:16.718Z,83.50
2019-04-28T01:20:15.746Z,83.70
2019-04-28T01:21:15.736Z,83.61
2019-04-28T01:22:15.725Z,83.91
2019-04-28T01:23:15.735Z,83.91
2019-04-28T01:24:15.701Z,83.77
2019-04-28T01:25:15.694Z,83.67
2019-04-28T01:26:15.685Z,83.50
2019-04-28T01:27:15.672Z,83.91
2019-04-28T01:28:15.690Z,83.61
2019-04-28T01:29:15.651Z,83.91
2019-04-28T01:30:15.674Z,84.01
2019-04-28T01:31:16.181Z,84.22
2019-04-28T01:32:15.619Z,84.12
2019-04-28T01:33:15.636Z,84.22
2019-04-28T01:34:15.631Z,84.32
2019-04-28T01:35:15.588Z,84.32
2019-04-28T01:36:15.609Z,84.42
2019-04-28T01:37:15.568Z,84.63
2019-04-28T01:38:15.638Z,84.42
2019-04-28T01:39:15.573Z,84.32
2019-04-28T01:40:15.574Z,84.22
2019-04-28T01:41:15.525Z,84.32
2019-04-28T01:42:15.521Z,84.42
2019-04-28T01:43:15.539Z,84.42
2019-04-28T01:44:16.194Z,84.53
2019-04-28T01:45:16.193Z,84.32
2019-04-28T01:46:15.471Z,84.53
2019-04-28T01:47:15.462Z,84.12
2019-04-28T01:48:15.451Z,84.32
2019-04-28T01:49:15.462Z,84.42
2019-04-28T01:50:16.290Z,84.32
2019-04-28T01:51:15.422Z,84.42
2019-04-28T01:52:15.408Z,84.32
2019-04-28T01:53:15.400Z,84.32
2019-04-28T01:54:15.443Z,84.22
2019-04-28T01:55:15.377Z,84.22
2019-04-28T01:56:15.369Z,84.22
2019-04-28T01:57:15.362Z,84.32
2019-04-28T01:58:15.346Z,84.22
2019-04-28T01:59:15.451Z,84.22
2019-04-28T02:00:22.886Z,83.81
2019-04-28T02:01:16.315Z,84.01
2019-04-28T02:02:15.982Z,83.81
2019-04-28T02:03:15.294Z,84.01
2019-04-28T02:04:15.312Z,84.42
2019-04-28T02:05:15.274Z,84.42
2019-04-28T02:06:15.261Z,84.32
2019-04-28T02:07:15.252Z,84.32
2019-04-28T02:08:15.242Z,84.32
2019-04-28T02:09:15.283Z,84.01
2019-04-28T02:10:15.909Z,84.32
2019-04-28T02:11:15.217Z,84.22
2019-04-28T02:12:15.233Z,84.32
2019-04-28T02:13:15.188Z,84.22
2019-04-28T02:14:15.199Z,84.42
2019-04-28T02:15:15.167Z,84.42
2019-04-28T02:16:15.165Z,84.32
2019-04-28T02:17:15.147Z,84.32
2019-04-28T02:18:15.136Z,84.32
2019-04-28T02:19:15.226Z,84.12
2019-04-28T02:20:15.805Z,84.22
2019-04-28T02:21:15.106Z,84.22
2019-04-28T02:22:15.115Z,84.12
2019-04-28T02:23:15.083Z,84.12
2019-04-28T02:24:15.133Z,84.22
2019-04-28T02:25:15.062Z,84.32
2019-04-28T02:26:15.059Z,84.22
2019-04-28T02:27:15.064Z,84.22
2019-04-28T02:28:15.031Z,84.32
2019-04-28T02:29:15.030Z,84.22
2019-04-28T02:30:15.041Z,84.22
2019-04-28T02:31:15.010Z,84.42
2019-04-28T02:32:14.990Z,84.53
2019-04-28T02:33:14.981Z,84.63
2019-04-28T02:34:14.978Z,84.63
2019-04-28T02:35:15.579Z,84.42
2019-04-28T02:36:14.958Z,84.53
2019-04-28T02:37:14.945Z,84.53
2019-04-28T02:38:14.927Z,84.42
2019-04-28T02:39:14.922Z,84.32
2019-04-28T02:40:14.946Z,84.12
2019-04-28T02:41:14.896Z,84.32
2019-04-28T02:42:14.896Z,84.32
2019-04-28T02:43:14.882Z,84.32
2019-04-28T02:44:14.873Z,84.12
2019-04-28T02:45:14.882Z,84.22
2019-04-28T02:46:14.851Z,84.22
2019-04-28T02:47:16.506Z,84.32
2019-04-28T02:48:14.831Z,84.12
2019-04-28T02:49:14.847Z,84.32
2019-04-28T02:50:15.159Z,84.32
2019-04-28T02:51:15.384Z,84.53
2019-04-28T02:52:14.801Z,84.42
2019-04-28T02:53:14.794Z,84.22
2019-04-28T02:54:14.779Z,84.12
2019-04-28T02:55:14.778Z,84.01
2019-04-28T02:56:14.741Z,84.01
2019-04-28T02:57:14.727Z,83.91
2019-04-28T02:58:14.727Z,83.91
2019-04-28T02:59:14.712Z,84.12
2019-04-28T03:00:14.730Z,84.32
2019-04-28T03:01:22.730Z,84.32
2019-04-28T03:02:15.729Z,84.12
2019-04-28T03:03:14.673Z,84.12
2019-04-28T03:04:14.660Z,84.12
2019-04-28T03:05:14.687Z,84.01
2019-04-28T03:06:14.714Z,84.01
2019-04-28T03:07:15.471Z,84.12
2019-04-28T03:08:15.376Z,84.01
2019-04-28T03:09:14.607Z,84.12
2019-04-28T03:10:14.652Z,83.91
2019-04-28T03:11:14.588Z,84.01
2019-04-28T03:12:14.578Z,84.01
2019-04-28T03:13:14.579Z,84.12
2019-04-28T03:14:14.558Z,84.12
2019-04-28T03:15:14.570Z,83.91
2019-04-28T03:16:14.537Z,84.01
2019-04-28T03:17:14.557Z,84.12
2019-04-28T03:18:14.515Z,84.01
2019-04-28T03:19:14.505Z,84.12
2019-04-28T03:20:14.517Z,84.12
2019-04-28T03:21:15.126Z,83.91
2019-04-28T03:22:14.475Z,84.12
2019-04-28T03:23:14.483Z,84.01
2019-04-28T03:24:14.453Z,83.91
2019-04-28T03:25:14.469Z,83.91
2019-04-28T03:26:14.430Z,83.91
2019-04-28T03:27:14.420Z,83.81
2019-04-28T03:28:14.412Z,83.81
2019-04-28T03:29:15.169Z,83.70
2019-04-28T03:30:15.973Z,83.81
2019-04-28T03:31:46.959Z,83.61
2019-04-28T03:32:31.138Z,83.81
2019-04-28T03:33:19.071Z,83.81
2019-04-28T03:34:15.346Z,83.81
2019-04-28T03:35:14.336Z,83.81
2019-04-28T03:36:15.703Z,83.70
2019-04-28T03:37:14.323Z,83.70
2019-04-28T03:38:14.306Z,83.91
2019-04-28T03:39:14.295Z,83.91
2019-04-28T03:40:14.287Z,83.81
2019-04-28T03:41:14.301Z,84.01
2019-04-28T03:42:14.264Z,83.81
2019-04-28T03:43:14.852Z,83.81
2019-04-28T03:44:14.286Z,83.91
2019-04-28T03:45:14.231Z,84.01
2019-04-28T03:46:14.245Z,84.01
2019-04-28T03:47:14.213Z,84.01
2019-04-28T03:48:14.200Z,84.12
2019-04-28T03:49:15.213Z,83.91
2019-04-28T03:50:14.201Z,83.91
2019-04-28T03:51:14.171Z,84.12
2019-04-28T03:52:14.167Z,84.12
2019-04-28T03:53:14.957Z,83.70
2019-04-28T03:54:14.168Z,83.70
2019-04-28T03:55:15.577Z,83.81
2019-04-28T03:56:14.197Z,83.61
2019-04-28T03:57:14.111Z,83.61
2019-04-28T03:58:14.598Z,83.19
2019-04-28T03:59:14.111Z,83.19
2019-04-28T04:00:14.072Z,82.99
2019-04-28T04:01:14.094Z,82.99
2019-04-28T04:02:14.057Z,82.78
2019-04-28T04:03:14.040Z,82.10
2019-04-28T04:04:14.031Z,82.17
2019-04-28T04:05:14.021Z,82.17
2019-04-28T04:06:14.040Z,82.06
2019-04-28T04:07:14.001Z,82.17
2019-04-28T04:08:14.019Z,82.17
2019-04-28T04:09:15.538Z,82.17
2019-04-28T04:10:13.976Z,81.86
2019-04-28T04:11:14.026Z,81.65
2019-04-28T04:12:13.949Z,81.55
2019-04-28T04:13:13.946Z,81.07
2019-04-28T04:14:13.960Z,81.38
2019-04-28T04:15:13.918Z,81.38
2019-04-28T04:16:14.007Z,81.38
2019-04-28T04:17:13.905Z,81.28
2019-04-28T04:18:13.883Z,81.38
2019-04-28T04:19:14.571Z,81.34
2019-04-28T04:20:13.863Z,81.45
2019-04-28T04:21:13.902Z,81.45
2019-04-28T04:22:15.253Z,81.55
2019-04-28T04:23:13.835Z,81.65
2019-04-28T04:24:13.825Z,81.55
2019-04-28T04:25:13.811Z,81.65
2019-04-28T04:26:13.835Z,81.65
2019-04-28T04:27:13.822Z,81.55
2019-04-28T04:28:13.784Z,81.24
2019-04-28T04:29:13.775Z,81.45
2019-04-28T04:30:13.808Z,81.45
2019-04-28T04:31:13.754Z,81.55
2019-04-28T04:32:22.881Z,81.45
2019-04-28T04:33:14.727Z,81.24
2019-04-28T04:34:13.725Z,81.04
2019-04-28T04:35:13.747Z,80.83
2019-04-28T04:36:13.708Z,80.93
2019-04-28T04:37:13.756Z,81.04
2019-04-28T04:38:14.274Z,81.24
2019-04-28T04:39:13.671Z,81.14
2019-04-28T04:40:13.654Z,81.14
2019-04-28T04:41:13.644Z,80.83
2019-04-28T04:42:13.662Z,80.83
2019-04-28T04:43:13.632Z,80.83
2019-04-28T04:44:13.612Z,80.52
2019-04-28T04:45:14.185Z,80.52
2019-04-28T04:46:14.251Z,80.42
2019-04-28T04:47:13.609Z,80.63
2019-04-28T04:48:13.579Z,80.63
2019-04-28T04:49:13.565Z,80.73
2019-04-28T04:50:13.554Z,80.52
2019-04-28T04:51:13.538Z,79.74
2019-04-28T04:52:14.130Z,79.12
2019-04-28T04:53:13.518Z,79.12
2019-04-28T04:54:14.205Z,79.02
2019-04-28T04:55:14.303Z,78.71
2019-04-28T04:56:13.502Z,78.50
2019-04-28T04:57:13.505Z,78.40
2019-04-28T04:58:14.302Z,78.50
2019-04-28T04:59:13.464Z,78.50
2019-04-28T05:00:13.481Z,78.61
2019-04-28T05:01:13.432Z,78.50
2019-04-28T05:02:26.586Z,78.30
2019-04-28T05:03:14.417Z,78.61
2019-04-28T05:04:13.400Z,78.81
2019-04-28T05:05:13.399Z,78.81
2019-04-28T05:06:13.385Z,78.61
2019-04-28T05:07:13.400Z,79.02
2019-04-28T05:08:15.480Z,79.12
2019-04-28T05:09:13.353Z,79.19
2019-04-28T05:10:13.346Z,79.19
2019-04-28T05:11:13.347Z,79.29
2019-04-28T05:12:13.346Z,79.08
2019-04-28T05:13:13.317Z,79.29
2019-04-28T05:14:13.301Z,79.29
2019-04-28T05:15:15.172Z,79.29
2019-04-28T05:16:13.283Z,79.15
2019-04-28T05:17:13.294Z,78.94
2019-04-28T05:18:13.252Z,79.05
2019-04-28T05:19:13.250Z,78.64
2019-04-28T05:20:13.231Z,78.43
2019-04-28T05:21:13.229Z,78.64
2019-04-28T05:22:13.240Z,78.85
2019-04-28T05:23:13.206Z,78.85
2019-04-28T05:24:15.942Z,78.85
2019-04-28T05:25:13.186Z,78.85
2019-04-28T05:26:13.176Z,78.74
2019-04-28T05:27:17.339Z,78.64
2019-04-28T05:28:14.880Z,78.64
2019-04-28T05:29:13.145Z,78.94
2019-04-28T05:30:14.063Z,78.33
2019-04-28T05:31:19.841Z,78.53
2019-04-28T05:32:14.135Z,78.85
2019-04-28T05:33:13.106Z,78.64
2019-04-28T05:34:13.093Z,78.43
2019-04-28T05:35:17.472Z,77.85
2019-04-28T05:36:14.074Z,78.27
2019-04-28T05:37:13.113Z,77.95
2019-04-28T05:38:13.050Z,78.16
2019-04-28T05:39:13.040Z,78.57
2019-04-28T05:40:13.671Z,77.95
2019-04-28T05:41:13.028Z,78.36
2019-04-28T05:42:13.009Z,77.95
2019-04-28T05:43:13.058Z,78.27
2019-04-28T05:44:12.988Z,77.85
2019-04-28T05:45:12.978Z,78.36
2019-04-28T05:46:13.770Z,78.27
2019-04-28T05:47:13.766Z,78.06
2019-04-28T05:48:12.975Z,78.27
2019-04-28T05:49:12.935Z,78.16
2019-04-28T05:50:12.925Z,78.36
2019-04-28T05:51:12.937Z,78.16
2019-04-28T05:52:13.666Z,78.12
2019-04-28T05:53:12.914Z,78.12
2019-04-28T05:54:12.882Z,77.71
2019-04-28T05:55:12.872Z,77.92
2019-04-28T05:56:12.862Z,78.23
2019-04-28T05:57:12.851Z,78.33
2019-04-28T05:58:12.902Z,78.43
2019-04-28T05:59:13.692Z,77.92
2019-04-28T06:00:12.821Z,78.02
2019-04-28T06:01:12.819Z,78.02
2019-04-28T06:02:12.799Z,78.12
2019-04-28T06:03:12.819Z,78.23
2019-04-28T06:04:12.777Z,78.43
2019-04-28T06:05:12.767Z,77.51
2019-04-28T06:06:12.759Z,77.30
2019-04-28T06:07:12.747Z,77.51
2019-04-28T06:08:12.762Z,77.92
2019-04-28T06:09:13.466Z,77.81
2019-04-28T06:10:12.722Z,77.71
2019-04-28T06:11:12.704Z,77.81
2019-04-28T06:12:12.703Z,77.30
2019-04-28T06:13:12.713Z,77.51
2019-04-28T06:14:12.689Z,77.92
2019-04-28T06:15:12.662Z,77.71
2019-04-28T06:16:12.675Z,77.81
2019-04-28T06:17:12.678Z,77.71
2019-04-28T06:18:12.661Z,77.40
2019-04-28T06:19:12.621Z,77.81
2019-04-28T06:20:12.610Z,77.71
2019-04-28T06:21:12.600Z,77.20
2019-04-28T06:22:12.590Z,77.30
2019-04-28T06:23:12.609Z,77.23
2019-04-28T06:24:12.574Z,77.51
2019-04-28T06:25:12.568Z,77.51
2019-04-28T06:26:12.577Z,77.40
2019-04-28T06:27:12.536Z,77.40
2019-04-28T06:28:12.552Z,77.30
2019-04-28T06:29:12.523Z,77.61
2019-04-28T06:30:14.344Z,78.02
2019-04-28T06:31:12.494Z,78.12
2019-04-28T06:32:12.493Z,77.92
2019-04-28T06:33:14.243Z,77.71
2019-04-28T06:34:12.462Z,77.71
2019-04-28T06:35:12.453Z,78.12
2019-04-28T06:36:12.451Z,78.64
2019-04-28T06:37:12.433Z,78.53
2019-04-28T06:38:13.361Z,78.64
2019-04-28T06:39:12.419Z,78.85
2019-04-28T06:40:12.400Z,78.91
2019-04-28T06:41:12.396Z,78.50
2019-04-28T06:42:12.425Z,78.60
2019-04-28T06:43:13.787Z,78.50
2019-04-28T06:44:12.389Z,78.09
2019-04-28T06:45:12.370Z,78.29
2019-04-28T06:46:12.342Z,78.29
2019-04-28T06:47:12.333Z,78.39
2019-04-28T06:48:12.342Z,78.91
2019-04-28T06:49:12.334Z,78.81
2019-04-28T06:50:12.301Z,78.56
2019-04-28T06:51:12.291Z,78.36
2019-04-28T06:52:12.287Z,78.46
2019-04-28T06:53:12.269Z,78.36
2019-04-28T06:54:12.307Z,78.16
2019-04-28T06:55:12.243Z,77.95
2019-04-28T06:56:12.238Z,78.16
2019-04-28T06:57:12.230Z,77.95
2019-04-28T06:58:12.219Z,77.74
2019-04-28T06:59:12.243Z,77.74
2019-04-28T07:00:12.188Z,77.95
2019-04-28T07:01:12.178Z,77.74
2019-04-28T07:02:12.175Z,77.50
2019-04-28T07:03:22.619Z,77.61
2019-04-28T07:04:13.383Z,77.29
2019-04-28T07:05:12.360Z,77.09
2019-04-28T07:06:12.144Z,77.40
2019-04-28T07:07:12.156Z,77.29
2019-04-28T07:08:13.943Z,77.20
2019-04-28T07:09:12.343Z,77.16
2019-04-28T07:10:12.092Z,77.06
2019-04-28T07:11:12.081Z,76.95
2019-04-28T07:12:12.071Z,76.85
2019-04-28T07:13:12.612Z,76.54
2019-04-28T07:14:12.078Z,76.44
2019-04-28T07:15:12.298Z,76.03
2019-04-28T07:16:12.033Z,75.62
2019-04-28T07:17:12.019Z,76.31
2019-04-28T07:18:12.869Z,76.10
2019-04-28T07:19:13.382Z,76.10
2019-04-28T07:20:12.180Z,74.36
2019-04-28T07:21:12.027Z,75.07
2019-04-28T07:22:13.883Z,75.79
2019-04-28T07:23:11.953Z,75.79
2019-04-28T07:24:11.975Z,75.59
2019-04-28T07:25:11.933Z,75.79
2019-04-28T07:26:11.927Z,75.59
2019-04-28T07:27:11.914Z,75.28
2019-04-28T07:28:12.473Z,74.66
2019-04-28T07:29:11.913Z,74.73
2019-04-28T07:30:11.881Z,75.04
2019-04-28T07:31:11.895Z,75.35
2019-04-28T07:32:12.610Z,75.24
2019-04-28T07:33:11.851Z,74.84
2019-04-28T07:34:11.860Z,74.63
2019-04-28T07:35:12.395Z,74.69
2019-04-28T07:36:11.819Z,75.65
2019-04-28T07:37:11.808Z,76.17
2019-04-28T07:38:11.798Z,76.47
2019-04-28T07:39:12.496Z,76.37
2019-04-28T07:40:11.777Z,76.23
2019-04-28T07:41:11.766Z,75.82
2019-04-28T07:42:11.757Z,75.82
2019-04-28T07:43:11.745Z,75.21
2019-04-28T07:44:11.764Z,74.80
2019-04-28T07:45:11.725Z,74.29
2019-04-28T07:46:11.725Z,73.98
2019-04-28T07:47:11.702Z,73.78
2019-04-28T07:48:11.693Z,73.54
2019-04-28T07:49:12.481Z,73.33
2019-04-28T07:50:11.725Z,73.61
2019-04-28T07:51:11.661Z,72.79
2019-04-28T07:52:11.673Z,72.79
2019-04-28T07:53:11.640Z,72.69
2019-04-28T07:54:11.708Z,72.55
2019-04-28T07:55:11.641Z,72.04
2019-04-28T07:56:11.609Z,71.83
2019-04-28T07:57:11.607Z,71.50
2019-04-28T07:58:11.588Z,71.50
2019-04-28T07:59:11.609Z,72.00
2019-04-28T08:00:11.569Z,72.38
2019-04-28T08:01:11.565Z,71.36
2019-04-28T08:02:11.552Z,71.33
2019-04-28T08:03:11.535Z,71.22
2019-04-28T08:04:12.145Z,70.27
2019-04-28T08:05:12.149Z,70.57
2019-04-28T08:06:11.526Z,69.66
2019-04-28T08:07:12.447Z,69.15
2019-04-28T08:08:11.483Z,69.53
2019-04-28T08:09:11.502Z,68.71
2019-04-28T08:10:11.461Z,68.30
2019-04-28T08:11:11.459Z,67.59
2019-04-28T08:12:11.441Z,66.77
2019-04-28T08:13:11.440Z,66.13
2019-04-28T08:14:11.459Z,66.33
2019-04-28T08:15:11.409Z,67.15
2019-04-28T08:16:12.089Z,64.90
2019-04-28T08:17:11.470Z,64.40
2019-04-28T08:18:12.087Z,64.67
2019-04-28T08:19:11.367Z,64.90
2019-04-28T08:20:11.386Z,65.01
2019-04-28T08:21:11.347Z,65.92
2019-04-28T08:22:11.342Z,65.59
2019-04-28T08:23:11.326Z,66.00
2019-04-28T08:24:11.391Z,65.59
2019-04-28T08:25:11.355Z,64.98
2019-04-28T08:26:11.301Z,64.78
2019-04-28T08:27:11.282Z,64.75
2019-04-28T08:28:11.275Z,65.16
2019-04-28T08:29:12.115Z,64.64
2019-04-28T08:30:11.281Z,64.72
2019-04-28T08:31:11.983Z,64.23
2019-04-28T08:32:11.232Z,64.23
2019-04-28T08:33:11.220Z,63.12
2019-04-28T08:34:11.209Z,63.53
2019-04-28T08:35:11.222Z,63.90
2019-04-28T08:36:11.190Z,62.78
2019-04-28T08:37:11.178Z,62.07
2019-04-28T08:38:11.169Z,62.88
2019-04-28T08:39:11.227Z,63.29
2019-04-28T08:40:11.193Z,61.63
2019-04-28T08:41:11.687Z,61.22
2019-04-28T08:42:11.125Z,60.72
2019-04-28T08:43:11.113Z,62.65
2019-04-28T08:44:11.105Z,61.63
2019-04-28T08:45:11.114Z,60.69
2019-04-28T08:46:11.573Z,60.99
2019-04-28T08:47:11.105Z,61.51
2019-04-28T08:48:11.063Z,60.86
2019-04-28T08:49:11.064Z,60.76
2019-04-28T08:50:11.062Z,59.95
2019-04-28T08:51:11.033Z,58.12
2019-04-28T08:52:11.018Z,57.68
2019-04-28T08:53:13.885Z,58.09
2019-04-28T08:54:10.999Z,57.56
2019-04-28T08:55:11.513Z,57.89
2019-04-28T08:56:10.970Z,56.95
2019-04-28T08:57:10.959Z,57.76
2019-04-28T08:58:10.978Z,58.54
2019-04-28T08:59:10.950Z,58.54
2019-04-28T09:00:10.995Z,57.93
2019-04-28T09:01:10.936Z,56.01
2019-04-28T09:02:10.986Z,55.78
2019-04-28T09:03:10.896Z,56.31
2019-04-28T09:04:15.494Z,58.65
2019-04-28T09:05:11.906Z,56.01
2019-04-28T09:06:10.874Z,55.58
2019-04-28T09:07:10.854Z,57.50
2019-04-28T09:08:10.875Z,57.10
2019-04-28T09:09:10.864Z,54.49
2019-04-28T09:10:10.879Z,54.86
2019-04-28T09:11:10.812Z,53.63
2019-04-28T09:12:10.808Z,54.33
2019-04-28T09:13:10.794Z,55.85
2019-04-28T09:14:10.780Z,55.65
2019-04-28T09:15:10.776Z,55.96
2019-04-28T09:16:10.793Z,55.17
2019-04-28T09:17:10.859Z,55.37
2019-04-28T09:18:10.749Z,54.16
2019-04-28T09:19:11.718Z,54.90
2019-04-28T09:20:10.719Z,56.41
2019-04-28T09:21:10.737Z,58.27
2019-04-28T09:22:10.705Z,58.37
2019-04-28T09:23:10.695Z,58.17
2019-04-28T09:24:10.708Z,56.31
2019-04-28T09:25:10.665Z,55.73
2019-04-28T09:26:11.647Z,52.08
2019-04-28T09:27:10.654Z,54.26
2019-04-28T09:28:10.634Z,52.21
2019-04-28T09:29:11.143Z,50.64
2019-04-28T09:30:10.644Z,48.70
2019-04-28T09:31:10.631Z,49.21
2019-04-28T09:32:11.156Z,47.89
2019-04-28T09:33:11.251Z,48.90
2019-04-28T09:34:10.572Z,49.38
2019-04-28T09:35:10.561Z,47.14
2019-04-28T09:36:10.580Z,48.58
2019-04-28T09:37:10.553Z,48.60
2019-04-28T09:38:10.572Z,49.84
2019-04-28T09:39:10.548Z,48.95
2019-04-28T09:40:10.531Z,49.45
2019-04-28T09:41:10.529Z,48.83
2019-04-28T09:42:10.487Z,52.99
2019-04-28T09:43:10.488Z,52.56
2019-04-28T09:44:10.466Z,51.86
2019-04-28T09:45:10.457Z,53.30
2019-04-28T09:46:10.477Z,52.79
2019-04-28T09:47:10.436Z,51.29
2019-04-28T09:48:10.447Z,52.99
2019-04-28T09:49:10.421Z,53.70
2019-04-28T09:50:10.411Z,52.51
2019-04-28T09:51:11.294Z,51.65
2019-04-28T09:52:10.384Z,51.40
2019-04-28T09:53:10.372Z,50.27
2019-04-28T09:54:10.506Z,47.62
2019-04-28T09:55:10.353Z,46.37
2019-04-28T09:56:10.377Z,45.03
2019-04-28T09:57:10.330Z,44.41
2019-04-28T09:58:10.327Z,43.60
2019-04-28T09:59:11.181Z,45.17
2019-04-28T10:00:10.304Z,43.54
2019-04-28T10:01:10.289Z,45.25
2019-04-28T10:02:10.299Z,42.55
2019-04-28T10:03:10.341Z,43.60
2019-04-28T10:04:10.288Z,42.92
2019-04-28T10:05:10.278Z,44.35
2019-04-28T10:06:10.238Z,44.17
2019-04-28T10:07:10.268Z,46.31
2019-04-28T10:08:10.317Z,45.93
2019-04-28T10:09:10.206Z,47.47
2019-04-28T10:10:10.724Z,47.36
2019-04-28T10:11:10.745Z,47.47
2019-04-28T10:12:10.219Z,47.36
2019-04-28T10:13:10.214Z,48.85
2019-04-28T10:14:10.184Z,46.79
2019-04-28T10:15:10.159Z,44.90
2019-04-28T10:16:10.751Z,45.10
2019-04-28T10:17:11.321Z,46.97
2019-04-28T10:18:10.198Z,45.06
2019-04-28T10:19:10.295Z,45.19
2019-04-28T10:20:10.163Z,42.15
2019-04-28T10:21:10.159Z,42.78
2019-04-28T10:22:10.499Z,44.15
2019-04-28T10:23:10.112Z,43.88
2019-04-28T10:24:10.163Z,44.51
2019-04-28T10:25:10.085Z,44.47
2019-04-28T10:26:10.181Z,45.46
2019-04-28T10:27:10.140Z,44.19
2019-04-28T10:28:10.102Z,41.43
2019-04-28T10:29:10.068Z,41.19
2019-04-28T10:30:10.093Z,42.21
2019-04-28T10:31:10.070Z,41.06
2019-04-28T10:32:10.978Z,40.16
2019-04-28T10:33:10.357Z,40.86
2019-04-28T10:34:10.922Z,42.88
2019-04-28T10:35:10.732Z,44.29
2019-04-28T10:36:10.111Z,42.86
2019-04-28T10:37:09.997Z,41.31
2019-04-28T10:38:09.974Z,42.07
2019-04-28T10:39:10.131Z,41.39
2019-04-28T10:40:09.965Z,43.44
2019-04-28T10:41:10.965Z,43.16
2019-04-28T10:42:10.169Z,41.39
2019-04-28T10:43:09.967Z,42.82
2019-04-28T10:44:10.904Z,43.24
2019-04-28T10:45:09.876Z,45.83
2019-04-28T10:46:10.005Z,46.17
2019-04-28T10:47:11.357Z,45.02
2019-04-28T10:48:09.929Z,45.67
2019-04-28T10:49:09.890Z,46.09
2019-04-28T10:50:09.775Z,47.03
2019-04-28T10:51:09.917Z,47.11
2019-04-28T10:52:09.816Z,46.76
2019-04-28T10:53:09.758Z,47.69
2019-04-28T10:54:09.736Z,46.09
2019-04-28T10:55:10.239Z,46.72
2019-04-28T10:56:09.879Z,46.83
2019-04-28T10:57:09.699Z,48.06
2019-04-28T10:58:09.893Z,47.53
2019-04-28T10:59:09.776Z,47.53
2019-04-28T11:00:09.807Z,48.22
2019-04-28T11:01:09.842Z,48.52
2019-04-28T11:02:10.615Z,48.03
2019-04-28T11:03:09.870Z,46.54
2019-04-28T11:04:10.711Z,46.84
2019-04-28T11:05:10.393Z,46.24
2019-04-28T11:06:12.460Z,45.94
2019-04-28T11:07:09.724Z,46.95
2019-04-28T11:08:09.755Z,48.03
2019-04-28T11:09:09.666Z,47.15
2019-04-28T11:10:09.638Z,47.86
2019-04-28T11:11:09.749Z,48.97
2019-04-28T11:12:09.576Z,48.67
2019-04-28T11:13:09.887Z,49.38
2019-04-28T11:14:09.594Z,49.60
2019-04-28T11:15:09.520Z,48.59
2019-04-28T11:16:10.188Z,47.78
2019-04-28T11:17:10.509Z,47.39
2019-04-28T11:18:09.720Z,48.31
2019-04-28T11:19:09.634Z,48.43
2019-04-28T11:20:09.562Z,48.63
2019-04-28T11:21:09.542Z,49.14
2019-04-28T11:22:09.496Z,48.94
2019-04-28T11:23:09.609Z,50.66
2019-04-28T11:24:09.607Z,50.23
2019-04-28T11:25:09.532Z,49.19
2019-04-28T11:26:09.419Z,47.88
2019-04-28T11:27:09.606Z,48.18
2019-04-28T11:28:09.566Z,48.57
2019-04-28T11:29:09.424Z,48.34
2019-04-28T11:30:09.476Z,48.54
2019-04-28T11:31:09.940Z,47.83
2019-04-28T11:32:09.455Z,46.92
2019-04-28T11:33:09.518Z,46.72
2019-04-28T11:34:09.360Z,47.15
2019-04-28T11:35:21.017Z,47.55
2019-04-28T11:36:11.067Z,47.86
2019-04-28T11:37:09.357Z,47.03
2019-04-28T11:38:09.330Z,45.91
2019-04-28T11:39:09.359Z,45.31
2019-04-28T11:40:09.368Z,45.91
2019-04-28T11:41:11.690Z,45.91
2019-04-28T11:42:10.240Z,46.91
2019-04-28T11:43:09.492Z,46.50
2019-04-28T11:44:10.119Z,47.19
2019-04-28T11:45:09.994Z,45.06
2019-04-28T11:46:09.305Z,43.37
2019-04-28T11:47:09.265Z,43.60
2019-04-28T11:48:09.203Z,41.73
2019-04-28T11:49:09.447Z,43.59
2019-04-28T11:50:09.326Z,44.11
2019-04-28T11:51:09.404Z,43.93
2019-04-28T11:52:09.221Z,43.85
2019-04-28T11:53:09.241Z,43.75
2019-04-28T11:54:10.124Z,44.56
2019-04-28T11:55:09.228Z,43.77
2019-04-28T11:56:09.221Z,45.10
2019-04-28T11:57:09.858Z,45.53
2019-04-28T11:58:09.158Z,45.96
2019-04-28T11:59:09.278Z,46.87
2019-04-28T12:00:09.150Z,46.14
2019-04-28T12:01:09.027Z,45.63
2019-04-28T12:02:09.387Z,45.73
2019-04-28T12:03:09.158Z,46.84
2019-04-28T12:04:09.239Z,46.67
2019-04-28T12:05:09.743Z,45.55
2019-04-28T12:06:09.561Z,46.67
2019-04-28T12:07:09.658Z,46.46
2019-04-28T12:08:09.103Z,46.87
2019-04-28T12:09:09.130Z,47.58
2019-04-28T12:10:09.068Z,48.69
2019-04-28T12:11:09.027Z,47.96
2019-04-28T12:12:09.014Z,47.75
2019-04-28T12:13:09.033Z,48.99
2019-04-28T12:14:09.559Z,49.10
2019-04-28T12:15:09.048Z,47.86
2019-04-28T12:16:08.959Z,47.96
2019-04-28T12:17:09.107Z,47.66
2019-04-28T12:18:09.010Z,46.77
2019-04-28T12:19:08.895Z,46.46
2019-04-28T12:20:08.873Z,47.38
2019-04-28T12:21:08.817Z,48.59
2019-04-28T12:22:08.809Z,47.47
2019-04-28T12:23:09.861Z,47.47
2019-04-28T12:24:08.924Z,47.38
2019-04-28T12:25:09.033Z,47.38
2019-04-28T12:26:09.191Z,46.87
2019-04-28T12:27:08.894Z,47.67
2019-04-28T12:28:08.888Z,47.27
2019-04-28T12:29:08.844Z,47.58
2019-04-28T12:30:09.588Z,47.58
2019-04-28T12:31:08.810Z,48.08
2019-04-28T12:32:08.812Z,47.17
2019-04-28T12:33:08.842Z,46.95
2019-04-28T12:34:08.796Z,48.36
2019-04-28T12:35:09.771Z,47.66
2019-04-28T12:36:08.731Z,48.36
2019-04-28T12:37:08.786Z,48.26
2019-04-28T12:38:08.719Z,48.99
2019-04-28T12:39:08.722Z,48.99
2019-04-28T12:40:08.831Z,48.90
2019-04-28T12:41:08.786Z,47.17
2019-04-28T12:42:08.781Z,48.21
2019-04-28T12:43:08.755Z,48.91
2019-04-28T12:44:09.641Z,49.52
2019-04-28T12:45:08.921Z,49.83
2019-04-28T12:46:10.179Z,49.44
2019-04-28T12:47:08.974Z,49.67
2019-04-28T12:48:08.700Z,50.59
2019-04-28T12:49:08.627Z,51.19
2019-04-28T12:50:08.535Z,51.42
2019-04-28T12:51:08.504Z,51.50
2019-04-28T12:52:08.492Z,52.31